createdAt,value
2019-02-26T00:00:34.295Z,20.60
2019-02-26T00:01:34.286Z,22.40
2019-02-26T00:02:34.317Z,20.60
2019-02-26T00:03:35.417Z,21.40
2019-02-26T00:04:35.136Z,20.90
2019-02-26T00:05:34.357Z,20.70
2019-02-26T00:06:34.348Z,19.80
2019-02-26T00:07:34.388Z,20.60
2019-02-26T00:08:34.421Z,21.00
2019-02-26T00:09:35.318Z,20.50
2019-02-26T00:10:36.462Z,20.20
2019-02-26T00:11:36.215Z,19.80
2019-02-26T00:12:35.611Z,19.90
2019-02-26T00:13:36.522Z,19.60
2019-02-26T00:14:34.459Z,20.20
2019-02-26T00:15:35.865Z,20.10
2019-02-26T00:16:37.600Z,19.70
2019-02-26T00:17:38.587Z,19.70
2019-02-26T00:18:34.507Z,20.00
2019-02-26T00:19:34.508Z,19.60
2019-02-26T00:20:37.350Z,20.20
2019-02-26T00:21:34.550Z,20.00
2019-02-26T00:22:36.639Z,19.80
2019-02-26T00:23:34.550Z,19.90
2019-02-26T00:24:35.323Z,20.20
2019-02-26T00:25:34.581Z,20.10
2019-02-26T00:26:36.171Z,20.70
2019-02-26T00:27:35.137Z,19.50
2019-02-26T00:28:36.307Z,20.70
2019-02-26T00:29:34.618Z,20.10
2019-02-26T00:30:37.383Z,20.50
2019-02-26T00:31:34.644Z,19.60
2019-02-26T00:32:36.606Z,19.60
2019-02-26T00:33:34.682Z,20.00
2019-02-26T00:34:36.738Z,20.40
2019-02-26T00:35:34.712Z,20.10
2019-02-26T00:36:36.402Z,19.80
2019-02-26T00:37:34.731Z,19.60
2019-02-26T00:38:35.434Z,20.10
2019-02-26T00:39:34.753Z,19.30
2019-02-26T00:40:36.661Z,19.60
2019-02-26T00:41:35.785Z,20.20
2019-02-26T00:42:36.079Z,19.50
2019-02-26T00:43:36.745Z,20.10
2019-02-26T00:44:37.191Z,20.10
2019-02-26T00:45:38.512Z,19.70
2019-02-26T00:46:36.816Z,19.70
2019-02-26T00:47:36.385Z,19.70
2019-02-26T00:48:36.110Z,20.50
2019-02-26T00:49:34.851Z,20.40
2019-02-26T00:50:35.727Z,19.70
2019-02-26T00:51:34.893Z,19.00
2019-02-26T00:52:37.024Z,19.80
2019-02-26T00:53:34.913Z,20.20
2019-02-26T00:54:36.588Z,20.80
2019-02-26T00:55:37.345Z,20.20
2019-02-26T00:56:36.426Z,20.20
2019-02-26T00:57:36.464Z,19.80
2019-02-26T00:58:38.938Z,20.10
2019-02-26T00:59:36.519Z,20.80
2019-02-26T01:00:35.463Z,20.40
2019-02-26T01:01:34.997Z,20.00
2019-02-26T01:02:35.026Z,20.30
2019-02-26T01:03:35.039Z,19.60
2019-02-26T01:04:35.031Z,20.90
2019-02-26T01:05:36.362Z,19.10
2019-02-26T01:06:35.060Z,19.80
2019-02-26T01:07:35.061Z,19.50
2019-02-26T01:08:35.743Z,20.60
2019-02-26T01:09:35.104Z,20.10
2019-02-26T01:10:36.899Z,20.80
2019-02-26T01:11:35.135Z,19.70
2019-02-26T01:12:35.735Z,20.00
2019-02-26T01:13:35.128Z,20.10
2019-02-26T01:14:35.164Z,20.10
2019-02-26T01:15:35.176Z,20.20
2019-02-26T01:16:36.962Z,20.40
2019-02-26T01:17:35.757Z,19.80
2019-02-26T01:18:35.217Z,20.10
2019-02-26T01:19:36.908Z,20.50
2019-02-26T01:20:35.229Z,20.00
2019-02-26T01:21:35.845Z,21.20
2019-02-26T01:22:35.837Z,20.10
2019-02-26T01:23:35.272Z,19.80
2019-02-26T01:24:35.256Z,20.10
2019-02-26T01:25:38.204Z,20.10
2019-02-26T01:26:35.292Z,21.00
2019-02-26T01:27:35.327Z,19.70
2019-02-26T01:28:35.327Z,20.00
2019-02-26T01:29:35.336Z,20.20
2019-02-26T01:30:36.189Z,20.60
2019-02-26T01:31:35.354Z,19.80
2019-02-26T01:32:35.348Z,20.20
2019-02-26T01:33:35.381Z,20.70
2019-02-26T01:34:35.423Z,19.50
2019-02-26T01:35:36.113Z,19.60
2019-02-26T01:36:35.392Z,20.60
2019-02-26T01:37:36.578Z,20.10
2019-02-26T01:38:37.451Z,20.40
2019-02-26T01:39:35.675Z,19.90
2019-02-26T01:40:39.428Z,20.80
2019-02-26T01:41:35.477Z,19.80
2019-02-26T01:42:35.462Z,20.20
2019-02-26T01:43:35.505Z,20.70
2019-02-26T01:44:37.372Z,19.80
2019-02-26T01:45:35.504Z,20.60
2019-02-26T01:46:36.671Z,19.70
2019-02-26T01:47:35.544Z,19.80
2019-02-26T01:48:36.739Z,19.70
2019-02-26T01:49:35.569Z,19.80
2019-02-26T01:50:37.516Z,19.80
2019-02-26T01:51:35.568Z,20.30
2019-02-26T01:52:35.612Z,20.30
2019-02-26T01:53:35.611Z,20.90
2019-02-26T01:54:37.312Z,20.40
2019-02-26T01:55:35.623Z,20.30
2019-02-26T01:56:36.470Z,19.60
2019-02-26T01:57:35.666Z,20.70
2019-02-26T01:58:35.665Z,19.10
2019-02-26T01:59:35.673Z,20.70
2019-02-26T02:00:35.690Z,20.40
2019-02-26T02:01:35.702Z,19.10
2019-02-26T02:02:35.717Z,19.60
2019-02-26T02:03:35.706Z,19.40
2019-02-26T02:04:37.121Z,19.30
2019-02-26T02:05:35.738Z,19.80
2019-02-26T02:06:36.923Z,19.60
2019-02-26T02:07:35.774Z,19.60
2019-02-26T02:08:39.322Z,20.00
2019-02-26T02:09:35.796Z,20.70
2019-02-26T02:10:35.788Z,19.90
2019-02-26T02:11:37.980Z,20.40
2019-02-26T02:12:37.358Z,20.80
2019-02-26T02:13:38.503Z,20.50
2019-02-26T02:14:35.828Z,20.90
2019-02-26T02:15:37.782Z,20.40
2019-02-26T02:16:35.863Z,21.10
2019-02-26T02:17:37.674Z,20.60
2019-02-26T02:18:35.897Z,20.20
2019-02-26T02:19:35.881Z,21.10
2019-02-26T02:20:35.888Z,20.50
2019-02-26T02:21:35.918Z,20.70
2019-02-26T02:22:37.657Z,20.70
2019-02-26T02:23:35.946Z,20.50
2019-02-26T02:24:39.016Z,20.10
2019-02-26T02:25:38.018Z,20.30
2019-02-26T02:26:35.956Z,19.80
2019-02-26T02:27:35.984Z,19.30
2019-02-26T02:28:35.981Z,19.50
2019-02-26T02:29:36.009Z,19.90
2019-02-26T02:30:38.872Z,20.60
2019-02-26T02:31:37.810Z,20.10
2019-02-26T02:32:36.046Z,20.10
2019-02-26T02:33:37.554Z,19.50
2019-02-26T02:34:39.282Z,20.60
2019-02-26T02:35:36.059Z,20.80
2019-02-26T02:36:36.067Z,20.00
2019-02-26T02:37:36.077Z,20.00
2019-02-26T02:38:37.103Z,19.70
2019-02-26T02:39:36.127Z,20.70
2019-02-26T02:41:39.155Z,19.10
2019-02-26T02:42:37.722Z,20.10
2019-02-26T02:43:36.171Z,20.00
2019-02-26T02:44:36.165Z,20.30
2019-02-26T02:45:36.191Z,20.00
2019-02-26T02:46:36.719Z,20.30
2019-02-26T02:47:38.327Z,20.30
2019-02-26T02:48:36.227Z,20.30
2019-02-26T02:49:37.469Z,20.60
2019-02-26T02:50:36.251Z,19.80
2019-02-26T02:51:37.152Z,20.80
2019-02-26T02:52:37.932Z,19.70
2019-02-26T02:53:36.276Z,20.30
2019-02-26T02:54:38.418Z,20.10
2019-02-26T02:55:37.899Z,20.60
2019-02-26T02:56:39.156Z,19.40
2019-02-26T02:57:36.369Z,19.60
2019-02-26T02:58:38.392Z,20.10
2019-02-26T02:59:37.341Z,19.50
2019-02-26T03:00:36.362Z,20.20
2019-02-26T03:01:36.374Z,19.10
2019-02-26T03:02:40.483Z,19.20
2019-02-26T03:03:36.371Z,20.60
2019-02-26T03:04:36.411Z,19.80
2019-02-26T03:05:38.054Z,19.90
2019-02-26T03:06:38.698Z,20.20
2019-02-26T03:07:36.455Z,19.90
2019-02-26T03:08:36.448Z,20.50
2019-02-26T03:09:37.785Z,20.30
2019-02-26T03:10:39.060Z,19.80
2019-02-26T03:11:41.186Z,20.30
2019-02-26T03:12:36.492Z,20.40
2019-02-26T03:13:36.504Z,20.20
2019-02-26T03:14:39.059Z,19.00
2019-02-26T03:15:36.531Z,21.00
2019-02-26T03:16:36.535Z,20.30
2019-02-26T03:17:36.555Z,21.00
2019-02-26T03:18:36.563Z,20.80
2019-02-26T03:19:38.453Z,21.40
2019-02-26T03:20:40.173Z,21.90
2019-02-26T03:21:36.600Z,20.90
2019-02-26T03:22:38.972Z,21.50
2019-02-26T03:23:40.249Z,22.30
2019-02-26T03:24:36.640Z,22.00
2019-02-26T03:25:36.622Z,21.60
2019-02-26T03:26:36.636Z,22.30
2019-02-26T03:27:37.427Z,21.90
2019-02-26T03:28:37.558Z,21.30
2019-02-26T03:29:36.690Z,21.30
2019-02-26T03:30:40.522Z,22.10
2019-02-26T03:31:41.054Z,22.00
2019-02-26T03:32:41.406Z,21.60
2019-02-26T03:33:36.717Z,21.40
2019-02-26T03:34:36.749Z,22.00
2019-02-26T03:35:36.735Z,22.40
2019-02-26T03:36:38.310Z,22.20
2019-02-26T03:37:36.779Z,21.60
2019-02-26T03:38:36.768Z,22.80
2019-02-26T03:39:36.783Z,22.00
2019-02-26T03:40:36.811Z,22.10
2019-02-26T03:41:36.801Z,21.00
2019-02-26T03:42:39.026Z,21.80
2019-02-26T03:43:39.210Z,22.50
2019-02-26T03:44:36.844Z,21.40
2019-02-26T03:45:36.852Z,22.10
2019-02-26T03:46:36.878Z,21.30
2019-02-26T03:47:40.024Z,21.20
2019-02-26T03:48:36.902Z,20.50
2019-02-26T03:49:36.910Z,21.50
2019-02-26T03:50:36.922Z,20.60
2019-02-26T03:51:39.114Z,21.30
2019-02-26T03:52:36.921Z,20.50
2019-02-26T03:53:39.013Z,20.80
2019-02-26T03:54:39.820Z,20.50
2019-02-26T03:55:39.103Z,20.70
2019-02-26T03:56:36.968Z,21.30
2019-02-26T03:57:41.100Z,20.80
2019-02-26T03:58:37.010Z,20.80
2019-02-26T03:59:37.003Z,20.80
2019-02-26T04:00:38.668Z,20.60
2019-02-26T04:01:37.027Z,20.90
2019-02-26T04:02:39.289Z,20.70
2019-02-26T04:03:39.145Z,21.00
2019-02-26T04:04:37.081Z,20.70
2019-02-26T04:05:37.073Z,20.50
2019-02-26T04:06:38.910Z,19.70
2019-02-26T04:07:37.106Z,21.10
2019-02-26T04:08:37.103Z,21.50
2019-02-26T04:09:39.204Z,20.00
2019-02-26T04:10:37.122Z,21.00
2019-02-26T04:11:39.231Z,20.60
2019-02-26T04:12:41.880Z,19.80
2019-02-26T04:13:37.156Z,20.40
2019-02-26T04:14:37.165Z,20.60
2019-02-26T04:15:38.389Z,19.50
2019-02-26T04:16:37.971Z,21.10
2019-02-26T04:17:39.512Z,21.20
2019-02-26T04:18:37.206Z,20.50
2019-02-26T04:19:37.239Z,20.50
2019-02-26T04:20:37.235Z,20.60
2019-02-26T04:21:37.259Z,20.90
2019-02-26T04:22:40.180Z,20.50
2019-02-26T04:23:38.838Z,20.30
2019-02-26T04:24:38.075Z,20.60
2019-02-26T04:25:37.303Z,20.90
2019-02-26T04:26:37.309Z,19.90
2019-02-26T04:27:39.354Z,20.80
2019-02-26T04:28:40.140Z,20.70
2019-02-26T04:29:38.026Z,20.30
2019-02-26T04:30:39.322Z,20.50
2019-02-26T04:31:37.355Z,20.40
2019-02-26T04:32:40.419Z,21.10
2019-02-26T04:33:40.709Z,19.80
2019-02-26T04:34:37.388Z,19.40
2019-02-26T04:35:37.406Z,19.60
2019-02-26T04:36:39.820Z,20.70
2019-02-26T04:37:38.549Z,20.50
2019-02-26T04:38:37.432Z,20.40
2019-02-26T04:39:39.396Z,20.20
2019-02-26T04:40:38.941Z,19.40
2019-02-26T04:41:37.456Z,20.00
2019-02-26T04:42:38.410Z,19.60
2019-02-26T04:43:38.835Z,20.40
2019-02-26T04:44:37.507Z,21.10
2019-02-26T04:45:37.507Z,20.70
2019-02-26T04:46:39.558Z,20.60
2019-02-26T04:47:37.528Z,20.60
2019-02-26T04:48:37.534Z,21.10
2019-02-26T04:49:42.105Z,20.90
2019-02-26T04:50:38.698Z,20.10
2019-02-26T04:51:41.511Z,21.50
2019-02-26T04:52:40.499Z,20.10
2019-02-26T04:53:37.589Z,20.60
2019-02-26T04:54:39.589Z,20.50
2019-02-26T04:55:39.145Z,21.20
2019-02-26T04:56:40.155Z,21.40
2019-02-26T04:57:39.643Z,20.40
2019-02-26T04:58:39.779Z,20.90
2019-02-26T04:59:40.753Z,21.90
2019-02-26T05:00:38.650Z,21.30
2019-02-26T05:01:37.687Z,21.40
2019-02-26T05:02:37.711Z,21.20
2019-02-26T05:03:37.713Z,20.80
2019-02-26T05:04:40.015Z,20.30
2019-02-26T05:05:37.731Z,21.50
2019-02-26T05:06:37.775Z,20.80
2019-02-26T05:07:38.373Z,19.80
2019-02-26T05:08:40.121Z,20.90
2019-02-26T05:09:37.759Z,20.70
2019-02-26T05:10:37.787Z,20.70
2019-02-26T05:11:40.568Z,20.90
2019-02-26T05:12:40.096Z,20.80
2019-02-26T05:13:37.827Z,20.40
2019-02-26T05:14:37.849Z,19.60
2019-02-26T05:15:37.844Z,19.70
2019-02-26T05:16:40.140Z,20.80
2019-02-26T05:17:37.871Z,20.90
2019-02-26T05:18:37.869Z,20.80
2019-02-26T05:19:39.499Z,20.00
2019-02-26T05:20:40.109Z,20.40
2019-02-26T05:21:38.014Z,20.40
2019-02-26T05:22:37.904Z,21.10
2019-02-26T05:23:37.933Z,21.60
2019-02-26T05:24:39.148Z,20.80
2019-02-26T05:25:39.759Z,19.40
2019-02-26T05:26:37.959Z,20.80
2019-02-26T05:27:40.074Z,20.50
2019-02-26T05:28:40.947Z,21.00
2019-02-26T05:29:40.361Z,20.10
2019-02-26T05:30:40.248Z,20.80
2019-02-26T05:31:40.059Z,20.80
2019-02-26T05:32:38.016Z,20.60
2019-02-26T05:33:38.029Z,20.30
2019-02-26T05:34:39.822Z,20.20
2019-02-26T05:35:40.708Z,20.40
2019-02-26T05:36:40.304Z,21.50
2019-02-26T05:37:40.874Z,20.30
2019-02-26T05:38:38.080Z,20.50
2019-02-26T05:39:40.354Z,21.30
2019-02-26T05:40:40.395Z,20.80
2019-02-26T05:41:40.379Z,21.30
2019-02-26T05:42:38.135Z,20.70
2019-02-26T05:43:38.140Z,20.80
2019-02-26T05:44:38.144Z,20.90
2019-02-26T05:45:38.162Z,20.90
2019-02-26T05:46:38.168Z,20.00
2019-02-26T05:47:38.175Z,20.20
2019-02-26T05:48:39.978Z,20.60
2019-02-26T05:49:40.726Z,21.00
2019-02-26T05:50:39.435Z,20.60
2019-02-26T05:51:38.403Z,21.40
2019-02-26T05:52:38.230Z,21.50
2019-02-26T05:53:38.248Z,21.80
2019-02-26T05:54:38.253Z,20.70
2019-02-26T05:55:38.264Z,21.50
2019-02-26T05:56:40.840Z,21.30
2019-02-26T05:57:38.299Z,21.10
2019-02-26T05:58:39.417Z,20.90
2019-02-26T05:59:38.311Z,21.60
2019-02-26T06:00:38.322Z,21.70
2019-02-26T06:01:38.331Z,21.00
2019-02-26T06:02:40.101Z,20.70
2019-02-26T06:03:39.075Z,20.90
2019-02-26T06:04:40.801Z,20.60
2019-02-26T06:05:41.153Z,21.70
2019-02-26T06:06:38.380Z,21.00
2019-02-26T06:07:38.792Z,22.00
2019-02-26T06:08:40.700Z,20.90
2019-02-26T06:09:38.417Z,21.20
2019-02-26T06:10:38.435Z,21.40
2019-02-26T06:11:39.986Z,21.60
2019-02-26T06:12:40.971Z,21.50
2019-02-26T06:13:40.987Z,21.90
2019-02-26T06:14:39.371Z,21.20
2019-02-26T06:15:38.480Z,21.90
2019-02-26T06:16:38.485Z,22.00
2019-02-26T06:17:43.076Z,22.50
2019-02-26T06:18:41.134Z,21.10
2019-02-26T06:19:40.202Z,21.00
2019-02-26T06:20:38.532Z,21.50
2019-02-26T06:21:41.826Z,21.70
2019-02-26T06:22:38.567Z,21.60
2019-02-26T06:23:39.330Z,21.50
2019-02-26T06:24:38.571Z,21.70
2019-02-26T06:25:38.603Z,21.80
2019-02-26T06:26:40.670Z,21.00
2019-02-26T06:27:38.631Z,21.90
2019-02-26T06:28:40.932Z,22.10
2019-02-26T06:29:38.621Z,21.20
2019-02-26T06:30:38.648Z,22.50
2019-02-26T06:31:41.717Z,22.20
2019-02-26T06:32:41.464Z,21.10
2019-02-26T06:33:40.806Z,22.20
2019-02-26T06:34:38.675Z,22.40
2019-02-26T06:35:40.552Z,22.20
2019-02-26T06:36:38.695Z,21.70
2019-02-26T06:37:40.286Z,23.00
2019-02-26T06:38:38.719Z,22.50
2019-02-26T06:39:38.751Z,22.90
2019-02-26T06:40:39.283Z,23.10
2019-02-26T06:41:40.120Z,23.00
2019-02-26T06:42:40.361Z,24.00
2019-02-26T06:43:40.018Z,23.70
2019-02-26T06:44:38.942Z,24.40
2019-02-26T06:45:41.074Z,24.10
2019-02-26T06:46:38.805Z,25.30
2019-02-26T06:47:38.818Z,25.70
2019-02-26T06:48:38.832Z,25.60
2019-02-26T06:49:38.837Z,24.20
2019-02-26T06:50:41.074Z,24.80
2019-02-26T06:51:38.863Z,26.20
2019-02-26T06:52:40.396Z,25.30
2019-02-26T06:53:38.890Z,25.70
2019-02-26T06:54:38.893Z,24.60
2019-02-26T06:55:38.912Z,24.30
2019-02-26T06:56:43.322Z,24.60
2019-02-26T06:57:41.462Z,24.70
2019-02-26T06:58:41.136Z,24.20
2019-02-26T06:59:38.943Z,23.60
2019-02-26T07:00:38.954Z,24.40
2019-02-26T07:01:39.710Z,22.90
2019-02-26T07:02:39.007Z,23.70
2019-02-26T07:03:40.867Z,23.30
2019-02-26T07:04:38.998Z,21.70
2019-02-26T07:05:39.019Z,23.50
2019-02-26T07:06:39.031Z,23.80
2019-02-26T07:07:39.029Z,24.80
2019-02-26T07:08:39.037Z,24.50
2019-02-26T07:09:41.008Z,24.40
2019-02-26T07:10:39.058Z,24.00
2019-02-26T07:11:39.089Z,24.70
2019-02-26T07:12:41.203Z,24.30
2019-02-26T07:13:41.050Z,24.70
2019-02-26T07:14:39.106Z,24.00
2019-02-26T07:15:40.498Z,24.60
2019-02-26T07:16:40.376Z,25.30
2019-02-26T07:17:40.680Z,24.30
2019-02-26T07:18:39.144Z,25.70
2019-02-26T07:19:39.159Z,25.60
2019-02-26T07:20:39.623Z,27.50
2019-02-26T07:21:40.643Z,29.90
2019-02-26T07:22:41.162Z,27.60
2019-02-26T07:23:40.037Z,27.00
2019-02-26T07:24:41.764Z,27.70
2019-02-26T07:25:41.468Z,27.30
2019-02-26T07:26:41.165Z,26.00
2019-02-26T07:27:39.251Z,25.80
2019-02-26T07:28:41.446Z,25.20
2019-02-26T07:29:40.128Z,25.60
2019-02-26T07:30:39.990Z,25.20
2019-02-26T07:31:39.285Z,25.10
2019-02-26T07:32:40.772Z,24.20
2019-02-26T07:33:39.620Z,23.70
2019-02-26T07:34:40.408Z,24.20
2019-02-26T07:35:39.763Z,23.70
2019-02-26T07:36:41.032Z,23.80
2019-02-26T07:37:40.347Z,23.30
2019-02-26T07:38:41.526Z,23.20
2019-02-26T07:39:41.509Z,23.40
2019-02-26T07:40:40.450Z,23.10
2019-02-26T07:41:39.419Z,23.40
2019-02-26T07:42:41.346Z,22.10
2019-02-26T07:43:41.816Z,21.80
2019-02-26T07:44:39.432Z,22.90
2019-02-26T07:45:39.473Z,22.90
2019-02-26T07:46:40.303Z,23.40
2019-02-26T07:47:39.458Z,22.10
2019-02-26T07:48:39.478Z,23.30
2019-02-26T07:49:39.487Z,23.20
2019-02-26T07:50:41.571Z,23.50
2019-02-26T07:51:40.532Z,22.60
2019-02-26T07:52:39.515Z,22.60
2019-02-26T07:53:42.060Z,22.70
2019-02-26T07:54:41.782Z,22.30
2019-02-26T07:55:41.952Z,22.50
2019-02-26T07:56:39.592Z,22.90
2019-02-26T07:57:40.452Z,23.30
2019-02-26T07:58:41.217Z,22.30
2019-02-26T07:59:40.448Z,23.60
2019-02-26T08:00:40.395Z,23.30
2019-02-26T08:01:40.417Z,24.30
2019-02-26T08:02:39.637Z,23.10
2019-02-26T08:03:41.539Z,22.80
2019-02-26T08:04:41.797Z,23.20
2019-02-26T08:05:39.671Z,23.10
2019-02-26T08:06:39.688Z,22.70
2019-02-26T08:07:39.680Z,23.70
2019-02-26T08:08:41.543Z,23.50
2019-02-26T08:09:39.706Z,22.30
2019-02-26T08:10:42.276Z,22.90
2019-02-26T08:11:41.253Z,22.40
2019-02-26T08:12:40.870Z,22.30
2019-02-26T08:13:39.815Z,23.20
2019-02-26T08:14:41.092Z,22.50
2019-02-26T08:15:39.916Z,22.40
2019-02-26T08:16:39.804Z,22.00
2019-02-26T08:17:39.807Z,22.00
2019-02-26T08:18:40.002Z,21.50
2019-02-26T08:19:41.742Z,22.00
2019-02-26T08:20:40.361Z,20.60
2019-02-26T08:21:39.831Z,21.50
2019-02-26T08:22:39.859Z,20.90
2019-02-26T08:23:41.293Z,25.90
2019-02-26T08:24:39.866Z,22.70
2019-02-26T08:25:39.883Z,23.10
2019-02-26T08:26:40.534Z,22.10
2019-02-26T08:27:39.915Z,22.40
2019-02-26T08:28:41.959Z,21.80
2019-02-26T08:29:39.928Z,20.90
2019-02-26T08:30:42.302Z,20.70
2019-02-26T08:31:42.566Z,20.60
2019-02-26T08:33:39.973Z,21.20
2019-02-26T08:34:40.000Z,21.50
2019-02-26T08:35:39.996Z,21.00
2019-02-26T08:36:40.015Z,21.40
2019-02-26T08:37:40.017Z,22.30
2019-02-26T08:38:40.048Z,20.70
2019-02-26T08:39:40.050Z,22.80
2019-02-26T08:40:40.061Z,23.40
2019-02-26T08:41:40.064Z,22.60
2019-02-26T08:42:40.076Z,21.70
2019-02-26T08:43:42.128Z,21.00
2019-02-26T08:44:40.107Z,21.80
2019-02-26T08:45:40.117Z,21.10
2019-02-26T08:46:42.174Z,21.50
2019-02-26T08:47:40.144Z,21.00
2019-02-26T08:48:41.406Z,21.00
2019-02-26T08:49:42.630Z,22.10
2019-02-26T08:50:42.138Z,21.70
2019-02-26T08:51:40.184Z,21.40
2019-02-26T08:52:40.203Z,22.10
2019-02-26T08:53:40.205Z,22.30
2019-02-26T08:54:40.221Z,22.30
2019-02-26T08:55:40.235Z,21.60
2019-02-26T08:56:40.992Z,22.00
2019-02-26T08:57:40.258Z,22.00
2019-02-26T08:58:41.129Z,22.70
2019-02-26T08:59:42.078Z,23.00
2019-02-26T09:00:40.295Z,22.00
2019-02-26T09:01:40.310Z,22.00
2019-02-26T09:02:41.217Z,22.70
2019-02-26T09:03:41.045Z,21.90
2019-02-26T09:04:42.523Z,21.90
2019-02-26T09:05:40.358Z,22.10
2019-02-26T09:06:41.276Z,23.00
2019-02-26T09:07:42.595Z,22.40
2019-02-26T09:08:41.347Z,21.50
2019-02-26T09:09:40.405Z,22.00
2019-02-26T09:10:41.333Z,22.00
2019-02-26T09:11:40.430Z,22.40
2019-02-26T09:12:41.908Z,21.90
2019-02-26T09:13:41.280Z,23.50
2019-02-26T09:14:42.687Z,22.90
2019-02-26T09:15:41.410Z,22.00
2019-02-26T09:16:40.490Z,22.70
2019-02-26T09:17:42.126Z,22.00
2019-02-26T09:18:40.657Z,21.50
2019-02-26T09:19:40.528Z,20.80
2019-02-26T09:20:40.536Z,21.10
2019-02-26T09:21:42.548Z,21.40
2019-02-26T09:22:45.675Z,21.20
2019-02-26T09:23:40.573Z,23.70
2019-02-26T09:24:40.588Z,22.80
2019-02-26T09:25:40.600Z,21.30
2019-02-26T09:26:40.739Z,20.80
2019-02-26T09:27:42.939Z,22.40
2019-02-26T09:28:40.645Z,22.40
2019-02-26T09:29:43.940Z,22.00
2019-02-26T09:30:40.870Z,20.80
2019-02-26T09:31:40.691Z,22.20
2019-02-26T09:32:44.190Z,22.30
2019-02-26T09:33:42.754Z,21.30
2019-02-26T09:34:40.724Z,20.60
2019-02-26T09:35:40.733Z,21.30
2019-02-26T09:36:40.740Z,21.60
2019-02-26T09:38:41.894Z,21.50
2019-02-26T09:39:40.775Z,20.90
2019-02-26T09:40:40.798Z,20.80
2019-02-26T09:41:42.628Z,20.80
2019-02-26T09:42:40.814Z,22.50
2019-02-26T09:43:41.395Z,22.00
2019-02-26T09:44:40.837Z,20.50
2019-02-26T09:45:43.100Z,20.00
2019-02-26T09:46:41.948Z,20.80
2019-02-26T09:47:40.876Z,20.70
2019-02-26T09:48:42.916Z,21.00
2019-02-26T09:49:40.917Z,19.50
2019-02-26T09:50:43.703Z,20.80
2019-02-26T09:51:40.931Z,19.90
2019-02-26T09:52:40.938Z,20.30
2019-02-26T09:53:40.956Z,20.10
2019-02-26T09:54:42.923Z,19.30
2019-02-26T09:55:40.991Z,19.10
2019-02-26T09:56:40.991Z,19.70
2019-02-26T09:57:41.009Z,18.90
2019-02-26T09:58:42.819Z,19.50
2019-02-26T09:59:41.032Z,18.40
2019-02-26T10:00:42.980Z,19.40
2019-02-26T10:01:42.869Z,19.00
2019-02-26T10:02:42.571Z,18.80
2019-02-26T10:03:41.494Z,18.70
2019-02-26T10:04:42.501Z,18.60
2019-02-26T10:05:41.116Z,18.30
2019-02-26T10:06:42.564Z,18.40
2019-02-26T10:07:41.146Z,18.80
2019-02-26T10:08:41.145Z,18.10
2019-02-26T10:09:45.759Z,18.60
2019-02-26T10:10:41.172Z,18.20
2019-02-26T10:11:42.456Z,18.40
2019-02-26T10:12:41.200Z,18.50
2019-02-26T10:13:42.017Z,17.80
2019-02-26T10:14:41.230Z,17.70
2019-02-26T10:15:42.807Z,17.60
2019-02-26T10:16:41.261Z,16.70
2019-02-26T10:17:42.840Z,17.30
2019-02-26T10:18:41.363Z,17.50
2019-02-26T10:19:42.995Z,16.60
2019-02-26T10:20:43.305Z,16.70
2019-02-26T10:21:43.079Z,16.70
2019-02-26T10:22:41.353Z,16.60
2019-02-26T10:23:41.345Z,16.90
2019-02-26T10:24:41.361Z,17.40
2019-02-26T10:25:41.376Z,17.00
2019-02-26T10:26:43.231Z,16.80
2019-02-26T10:27:43.127Z,17.00
2019-02-26T10:28:42.675Z,17.20
2019-02-26T10:29:42.974Z,16.70
2019-02-26T10:30:41.825Z,16.60
2019-02-26T10:31:41.453Z,17.60
2019-02-26T10:32:41.486Z,17.40
2019-02-26T10:33:43.964Z,17.80
2019-02-26T10:34:41.497Z,17.80
2019-02-26T10:35:44.769Z,16.70
2019-02-26T10:36:44.152Z,17.60
2019-02-26T10:37:43.518Z,17.10
2019-02-26T10:38:41.551Z,16.70
2019-02-26T10:39:42.236Z,18.70
2019-02-26T10:40:53.405Z,17.10
2019-02-26T10:41:43.738Z,18.10
2019-02-26T10:42:41.623Z,18.70
2019-02-26T10:43:42.358Z,18.10
2019-02-26T10:44:42.765Z,18.10
2019-02-26T10:45:44.675Z,18.30
2019-02-26T10:46:42.741Z,17.60
2019-02-26T10:48:43.391Z,17.90
2019-02-26T10:49:41.688Z,18.60
2019-02-26T10:50:45.008Z,17.90
2019-02-26T10:51:42.674Z,18.60
2019-02-26T10:52:41.733Z,18.70
2019-02-26T10:53:41.753Z,18.60
2019-02-26T10:54:43.525Z,18.20
2019-02-26T10:55:42.094Z,17.90
2019-02-26T10:56:44.862Z,18.10
2019-02-26T10:57:41.816Z,17.80
2019-02-26T10:58:41.822Z,17.00
2019-02-26T10:59:44.212Z,17.80
2019-02-26T11:00:41.839Z,17.80
2019-02-26T11:01:41.855Z,17.80
2019-02-26T11:02:43.367Z,17.80
2019-02-26T11:03:44.380Z,17.90
2019-02-26T11:04:43.919Z,17.20
2019-02-26T11:05:42.626Z,18.90
2019-02-26T11:06:44.611Z,17.70
2019-02-26T11:07:41.941Z,17.70
2019-02-26T11:08:41.951Z,18.80
2019-02-26T11:09:44.711Z,18.50
2019-02-26T11:10:44.313Z,17.90
2019-02-26T11:11:42.392Z,19.50
2019-02-26T11:12:42.003Z,21.20
2019-02-26T11:13:43.499Z,17.80
2019-02-26T11:14:44.183Z,18.50
2019-02-26T11:15:42.051Z,17.90
2019-02-26T11:16:42.075Z,17.60
2019-02-26T11:17:43.092Z,17.90
2019-02-26T11:18:42.737Z,18.00
2019-02-26T11:19:42.111Z,17.90
2019-02-26T11:20:42.115Z,18.60
2019-02-26T11:21:42.131Z,18.40
2019-02-26T11:22:43.111Z,18.10
2019-02-26T11:23:44.017Z,18.50
2019-02-26T11:24:42.174Z,18.60
2019-02-26T11:25:42.188Z,18.40
2019-02-26T11:26:43.993Z,18.20
2019-02-26T11:27:43.958Z,18.60
2019-02-26T11:28:43.602Z,18.50
2019-02-26T11:29:42.234Z,18.50
2019-02-26T11:30:44.119Z,18.60
2019-02-26T11:31:44.555Z,18.30
2019-02-26T11:32:42.302Z,18.10
2019-02-26T11:33:42.304Z,17.80
2019-02-26T11:34:42.313Z,18.20
2019-02-26T11:35:44.337Z,18.80
2019-02-26T11:36:42.333Z,18.20
2019-02-26T11:37:42.458Z,19.20
2019-02-26T11:38:44.393Z,19.00
2019-02-26T11:39:42.478Z,19.00
2019-02-26T11:40:42.410Z,19.00
2019-02-26T11:41:42.411Z,19.40
2019-02-26T11:42:44.393Z,19.60
2019-02-26T11:43:42.441Z,19.10
2019-02-26T11:44:42.443Z,18.70
2019-02-26T11:45:44.444Z,18.50
2019-02-26T11:46:44.527Z,18.80
2019-02-26T11:47:43.837Z,18.60
2019-02-26T11:48:42.499Z,17.80
2019-02-26T11:49:44.119Z,18.50
2019-02-26T11:50:44.579Z,17.90
2019-02-26T11:51:42.625Z,18.20
2019-02-26T11:52:42.574Z,18.60
2019-02-26T11:53:43.450Z,19.20
2019-02-26T11:54:44.539Z,19.20
2019-02-26T11:55:42.600Z,19.40
2019-02-26T11:56:44.573Z,18.60
2019-02-26T11:57:45.142Z,18.20
2019-02-26T11:58:42.641Z,18.00
2019-02-26T11:59:42.916Z,17.50
2019-02-26T12:00:44.808Z,18.40
2019-02-26T12:01:42.686Z,18.20
2019-02-26T12:02:43.559Z,17.40
2019-02-26T12:03:43.939Z,18.10
2019-02-26T12:04:42.723Z,18.60
2019-02-26T12:05:42.736Z,18.40
2019-02-26T12:06:42.753Z,17.40
2019-02-26T12:07:42.768Z,17.40
2019-02-26T12:08:44.798Z,19.40
2019-02-26T12:09:43.311Z,18.70
2019-02-26T12:10:42.813Z,19.20
2019-02-26T12:12:42.838Z,18.90
2019-02-26T12:13:44.593Z,17.90
2019-02-26T12:14:44.104Z,19.40
2019-02-26T12:15:42.901Z,19.20
2019-02-26T12:16:42.905Z,18.50
2019-02-26T12:17:42.911Z,18.20
2019-02-26T12:18:44.401Z,18.30
2019-02-26T12:19:42.942Z,18.00
2019-02-26T12:20:45.928Z,17.60
2019-02-26T12:21:42.969Z,16.80
2019-02-26T12:22:44.682Z,17.70
2019-02-26T12:23:46.017Z,17.40
2019-02-26T12:24:43.015Z,17.60
2019-02-26T12:25:43.020Z,16.80
2019-02-26T12:26:45.309Z,16.40
2019-02-26T12:27:43.773Z,17.30
2019-02-26T12:28:43.064Z,16.80
2019-02-26T12:29:45.571Z,17.90
2019-02-26T12:30:44.752Z,17.60
2019-02-26T12:31:43.120Z,18.20
2019-02-26T12:32:46.846Z,17.30
2019-02-26T12:33:43.135Z,17.50
2019-02-26T12:34:45.425Z,17.90
2019-02-26T12:35:43.776Z,17.90
2019-02-26T12:36:43.177Z,17.90
2019-02-26T12:37:43.192Z,17.60
2019-02-26T12:38:43.210Z,16.40
2019-02-26T12:39:44.382Z,17.60
2019-02-26T12:40:46.392Z,17.20
2019-02-26T12:41:45.324Z,17.20
2019-02-26T12:42:43.265Z,17.30
2019-02-26T12:43:46.279Z,17.30
2019-02-26T12:44:45.516Z,16.50
2019-02-26T12:45:43.317Z,17.30
2019-02-26T12:46:44.862Z,15.60
2019-02-26T12:47:45.564Z,15.20
2019-02-26T12:48:44.880Z,14.70
2019-02-26T12:49:45.121Z,14.50
2019-02-26T12:50:43.392Z,14.30
2019-02-26T12:51:43.393Z,14.60
2019-02-26T12:52:44.797Z,15.10
2019-02-26T12:53:46.109Z,14.40
2019-02-26T12:54:43.438Z,13.60
2019-02-26T12:55:43.474Z,13.80
2019-02-26T12:56:43.466Z,13.40
2019-02-26T12:57:46.500Z,13.40